• Join FlightAware (Why Join?)
  • Login
  • US Flag 
08:48AM EDT


 

Airport Tracker/Info


-or-


 

Live Flight TrackerFlight Track Log ✈ N238PC ✈ 01-May-2012 ✈ KCWS - KFSD

Flight Track Log - Related Links

Times and Time Zones

All times are in EDT time to prevent confusion due to time zone crossing. See the N238PC flight status page for this flight to view local times or setup timezone preferences in your user account.

Time Position Orientation Groundspeed Altitude Reporting Facility
EDT Latitude Longitude Course Direction KTS MPH feet Rate Location/Type
10:34AM 35.0982 -92.4322 334° Northwest  Level FlightAware Approximate
10:35AM 35.3897 -92.6033 343° North 173 199 10,500  Level Memphis Center
10:36AM 35.4539 -92.6281 344° North 186 214 12,300 1,260 Climbing Memphis Center
10:37AM 35.5017 -92.6447 340° North 181 208 13,700 1,380 Climbing Memphis Center
10:38AM 35.5514 -92.6664 343° North 181 208 15,100 1,500 Climbing Memphis Center
10:39AM 35.6011 -92.6856 344° North 181 208 16,700 1,560 Climbing Memphis Center
10:40AM 35.6486 -92.7022 338° Northwest 181 208 18,300 1,380 Climbing Memphis Center
10:41AM 35.6922 -92.7242 339° North 181 208 19,500 900 Climbing Memphis Center
10:42AM 35.7436 -92.7486 338° Northwest 186 214 20,200 900 Climbing Memphis Center
10:43AM 35.7975 -92.7756 342° North 197 227 21,300 1,020 Climbing Memphis Center
10:44AM 35.8533 -92.7978 339° North 202 232 22,300 900 Climbing Memphis Center
10:45AM 35.9050 -92.8222 340° North 202 232 23,200 840 Climbing Memphis Center
10:46AM 35.9608 -92.8469 342° North 202 232 24,000 360 Climbing Memphis Center
10:47AM 36.0228 -92.8719 341° North 209 241 24,000  Level Memphis Center
10:48AM 36.0889 -92.8997 337° Northwest 232 267 24,000  Level Memphis Center
10:49AM 36.1550 -92.9353 343° North 249 287 24,000  Level Memphis Center
10:50AM 36.2272 -92.9633 339° North 254 292 24,000  Level Memphis Center
10:51AM 36.2956 -92.9964 343° North 259 298 24,000  Level Memphis Center
10:52AM 36.3678 -93.0244 341° North 264 304 24,000  Level Memphis Center
10:53AM 36.4381 -93.0550 350° North 264 304 24,000  Level Memphis Center
10:55AM 36.5611 -93.0811 North 270 311 24,000  Level Kansas City Center
10:56AM 36.6361 -93.0722 North 270 311 24,000  Level Kansas City Center
10:57AM 36.7133 -93.0706 North 270 311 24,000  Level Kansas City Center
10:58AM 36.7883 -93.0667 North 270 311 24,000  Level Kansas City Center
10:59AM 36.8656 -93.0522 North 270 311 24,000  Level Kansas City Center
11:00AM 36.9383 -93.0508 North 270 311 24,000  Level Kansas City Center
11:01AM 37.0133 -93.0392 North 270 311 24,000  Level Kansas City Center
11:02AM 37.0906 -93.0297 North 270 311 24,000  Level Kansas City Center
11:03AM 37.1656 -93.0206 North 270 311 24,000  Level Kansas City Center
11:04AM 37.2406 -93.0086 North 270 311 24,000  Level Kansas City Center
11:05AM 37.3153 -92.9992 North 270 311 24,000  Level Kansas City Center
11:06AM 37.3925 -92.9872 North 270 311 24,000  Level Kansas City Center
11:07AM 37.4672 -92.9728 North 275 316 24,000  Level Kansas City Center
11:08AM 37.5422 -92.9658 North 275 316 24,000  Level Kansas City Center
11:09AM 37.6153 -92.9567 North 275 316 24,000  Level Kansas City Center
11:10AM 37.6903 -92.9444 359° North 275 316 24,000  Level Kansas City Center
11:11AM 37.7611 -92.9458 342° North 268 308 24,000  Level Kansas City Center
11:12AM 37.8261 -92.9733 326° Northwest 253 291 24,000  Level Kansas City Center
11:13AM 37.8808 -93.0194 327° Northwest 238 274 24,000  Level Kansas City Center
11:14AM 37.9400 -93.0683 334° Northwest 238 274 24,000  Level Kansas City Center
11:15AM 38.0031 -93.1067 337° Northwest 238 274 24,000  Level Kansas City Center
11:16AM 38.0658 -93.1397 336° Northwest 238 274 24,000  Level Kansas City Center
11:17AM 38.1289 -93.1756 333° Northwest 238 274 24,000  Level Kansas City Center
11:18AM 38.1919 -93.2167 334° Northwest 238 274 24,000  Level Kansas City Center
11:19AM 38.2528 -93.2553 335° Northwest 243 280 24,000  Level Kansas City Center
11:20AM 38.3178 -93.2939 336° Northwest 249 287 24,000  Level Kansas City Center
11:21AM 38.3828 -93.3300 334° Northwest 249 287 24,000  Level Kansas City Center
11:22AM 38.4436 -93.3686 336° Northwest 249 287 24,000  Level Kansas City Center
11:23AM 38.5108 -93.4075 333° Northwest 254 292 24,000  Level Kansas City Center
11:24AM 38.5736 -93.4492 335° Northwest 254 292 24,000  Level Kansas City Center
11:25AM 38.6386 -93.4881 335° Northwest 254 292 24,000  Level Kansas City Center
11:26AM 38.6994 -93.5244 336° Northwest 254 292 24,000  Level Kansas City Center
11:27AM 38.7622 -93.5608 333° Northwest 254 292 24,000  Level Kansas City Center
11:28AM 38.8231 -93.6000 333° Northwest 249 287 24,000  Level Kansas City Center
11:29AM 38.8839 -93.6392 337° Northwest 249 287 24,000  Level Kansas City Center
11:30AM 38.9467 -93.6733 333° Northwest 249 287 24,000  Level Kansas City Center
11:31AM 38.9947 -93.7047 335° Northwest 244 281 24,000  Level Kansas City Center
11:32AM 39.0658 -93.7467 332° Northwest 230 265 24,000  Level Kansas City Center
11:33AM 39.1244 -93.7861 337° Northwest 235 270 24,000  Level Kansas City Center
11:34AM 39.1872 -93.8203 334° Northwest 235 270 24,000  Level Kansas City Center
11:35AM 39.2417 -93.8547 334° Northwest 241 277 24,000  Level Kansas City Center
11:36AM 39.3086 -93.8969 335° Northwest 241 277 24,000  Level Kansas City Center
11:37AM 39.3711 -93.9342 335° Northwest 241 277 24,000  Level Kansas City Center
11:38AM 39.4278 -93.9686 334° Northwest 241 277 24,000  Level Kansas City Center
11:39AM 39.4861 -94.0058 335° Northwest 241 277 24,000  Level Kansas City Center
11:40AM 39.5550 -94.0483 336° Northwest 241 277 24,000  Level Kansas City Center
11:41AM 39.6197 -94.0858 334° Northwest 241 277 24,000  Level Kansas City Center
11:42AM 39.6742 -94.1203 333° Northwest 241 277 24,000  Level Kansas City Center
11:43AM 39.7347 -94.1606 334° Northwest 241 277 24,000  Level Kansas City Center
11:44AM 39.8036 -94.2033 335° Northwest 241 277 24,000  Level Kansas City Center
11:45AM 39.8661 -94.2411 333° Northwest 241 277 24,000  Level Kansas City Center
11:46AM 39.9225 -94.2786 334° Northwest 241 277 24,000  Level Kansas City Center
11:47AM 39.9914 -94.3217 335° Northwest 241 277 24,000  Level Kansas City Center
11:48AM 40.0539 -94.3594 333° Northwest 241 277 24,000  Level Kansas City Center
11:49AM 40.1164 -94.4003 335° Northwest 241 277 24,000  Level Kansas City Center
11:50AM 40.1747 -94.4353 333° Northwest 247 284 24,000  Level Kansas City Center
11:52AM 40.3086 -94.5250 336° Northwest 254 292 24,000  Level Minneapolis Center
11:53AM 40.3811 -94.5669 336° Northwest 254 292 24,000  Level Minneapolis Center
11:54AM 40.4431 -94.6033 331° Northwest 254 292 24,000  Level Minneapolis Center
11:55AM 40.5050 -94.6481 334° Northwest 254 292 24,000  Level Minneapolis Center
11:56AM 40.5669 -94.6875 331° Northwest 249 287 24,000  Level Minneapolis Center
11:57AM 40.6247 -94.7294 335° Northwest 242 278 24,000  Level Minneapolis Center
11:58AM 40.6886 -94.7692 335° Northwest 242 278 24,000  Level Minneapolis Center
11:59AM 40.7525 -94.8086 331° Northwest 242 278 24,000  Level Minneapolis Center
12:00PM 40.8144 -94.8539 334° Northwest 242 278 24,000  Level Minneapolis Center
12:01PM 40.8764 -94.8936 332° Northwest 242 278 24,000  Level Minneapolis Center
12:02PM 40.9381 -94.9361 333° Northwest 242 278 24,000  Level Minneapolis Center
12:03PM 41.0019 -94.9789 336° Northwest 242 278 24,000  Level Minneapolis Center
12:04PM 41.0658 -95.0161 333° Northwest 242 278 24,000  Level Minneapolis Center
12:05PM 41.1278 -95.0589 333° Northwest 242 278 24,000  Level Minneapolis Center
12:06PM 41.1917 -95.1019 336° Northwest 242 278 24,000  Level Minneapolis Center
12:07PM 41.2556 -95.1394 333° Northwest 247 284 24,000  Level Minneapolis Center
12:08PM 41.3153 -95.1797 334° Northwest 247 284 24,000  Level Minneapolis Center
12:09PM 41.3811 -95.2231 331° Northwest 247 284 24,000  Level Minneapolis Center
12:10PM 41.4408 -95.2664 333° Northwest 247 284 24,000  Level Minneapolis Center
12:11PM 41.5044 -95.3097 336° Northwest 247 284 24,000  Level Minneapolis Center
12:12PM 41.5683 -95.3478 332° Northwest 247 284 24,000  Level Minneapolis Center
12:13PM 41.6319 -95.3939 334° Northwest 253 291 24,000  Level Minneapolis Center
12:14PM 41.6958 -95.4347 334° Northwest 253 291 24,000  Level Minneapolis Center
12:15PM 41.7597 -95.4758 333° Northwest 253 291 24,000  Level Minneapolis Center
12:16PM 41.8233 -95.5197 334° Northwest 253 291 24,000  Level Minneapolis Center
12:17PM 41.8869 -95.5608 333° Northwest 253 291 24,000  Level Minneapolis Center
12:18PM 41.9508 -95.6050 332° Northwest 253 291 24,000  Level Minneapolis Center
12:19PM 42.0122 -95.6489 334° Northwest 253 291 24,000 -300 Level Minneapolis Center
12:20PM 42.0800 -95.6933 333° Northwest 258 297 23,400 -840 Descending Minneapolis Center
12:21PM 42.1500 -95.7406 335° Northwest 258 297 22,400 -900 Descending Minneapolis Center
12:22PM 42.2217 -95.7853 334° Northwest 278 320 21,700 -840 Descending Minneapolis Center
12:23PM 42.2936 -95.8331 331° Northwest 278 320 20,800 -1,020 Descending Minneapolis Center
12:24PM 42.3611 -95.8833 333° Northwest 278 320 19,700 -1,080 Descending Minneapolis Center
12:25PM 42.4308 -95.9311 334° Northwest 278 320 18,700 -1,200 Descending Minneapolis Center
12:26PM 42.5028 -95.9792 331° Northwest 278 320 17,400 -1,200 Descending Minneapolis Center
12:27PM 42.5703 -96.0300 332° Northwest 278 320 16,300 -1,200 Descending Minneapolis Center
12:28PM 42.6439 -96.0839 333° Northwest 283 326 15,100 -1,020 Descending Minneapolis Center
12:29PM 42.7014 -96.1231 335° Northwest 283 326 14,300 -900 Descending Minneapolis Center
12:30PM 42.7772 -96.1717 332° Northwest 277 319 13,300 -1,140 Descending Minneapolis Center
12:31PM 42.8467 -96.2231 334° Northwest 277 319 12,100 -1,320 Descending Minneapolis Center
12:32PM 42.9244 -96.2747 332° Northwest 282 325 10,800 -1,260 Descending Minneapolis Center
12:33PM 42.9961 -96.3264 334° Northwest 282 325 9,600 -1,140 Descending Minneapolis Center
12:34PM 43.0658 -96.3722 331° Northwest 282 325 8,600 -900 Descending Minneapolis Center
12:35PM 43.1269 -96.4181 328° Northwest 271 312 7,900 -1,080 Descending Minneapolis Center
12:36PM 43.1861 -96.4694 326° Northwest 259 298 6,500 -1,020 Descending Minneapolis Center
12:37PM 43.2408 -96.5206 330° Northwest 246 283 5,900 -660 Descending Minneapolis Center
12:38PM 43.2917 -96.5603 331° Northwest 234 269 5,200 -780 Descending Minneapolis Center
12:39PM 43.3569 -96.6094 341° North 246 283 4,400 -600 Descending Minneapolis Center
12:40PM 43.4250 -96.6417 338° Northwest 256 295 4,100 -240 Descending Minneapolis Center
12:41PM 43.4864 -96.6764 342° North 256 295 4,000 -180 Descending Minneapolis Center
12:42PM 43.5461 -96.7028 358° North 234 269 3,800 -720 Descending Minneapolis Center
12:43PM 43.5897 -96.7050 323° Northwest 196 226 2,600 -960 Descending Minneapolis Center
12:44PM 43.6161 -96.7322 323° Northwest 132 152 1,900 -720 Descending Minneapolis Center